Time;durP1;ratioP1;P1;durP2;ratioP2;P2;SDS_P1;SDS_P2;PMS_P1;PMS_P2;Temp;Humidity;BMP_temperature;BMP_pressure;BME280_temperature;BME280_humidity;BME280_pressure;Samples;Min_cycle;Max_cycle;Signal;HPM_P1;HPM_P2
2023/07/12 00:01:55;;;;;;;4.75;1.38;;;16.70;99.90;;;;;;5132245;27;20030;-54
2023/07/12 00:04:20;;;;;;;9.15;1.80;;;16.70;99.90;;;;;;5131855;27;20493;-53
2023/07/12 00:06:46;;;;;;;6.88;1.38;;;16.70;99.90;;;;;;5132002;27;20088;-50
2023/07/12 00:09:14;;;;;;;9.27;1.80;;;16.70;99.90;;;;;;5131723;27;20034;-44
2023/07/12 00:11:40;;;;;;;3.90;1.25;;;16.70;99.90;;;;;;5131950;27;20126;-53
2023/07/12 00:14:06;;;;;;;5.25;1.27;;;16.70;99.90;;;;;;5131860;27;20039;-47
2023/07/12 00:16:37;;;;;;;8.45;1.60;;;16.70;99.90;;;;;;5131541;27;20019;-54
2023/07/12 00:19:04;;;;;;;7.43;2.42;;;16.70;99.90;;;;;;5131811;27;20019;-54
2023/07/12 00:21:30;;;;;;;7.57;1.73;;;16.60;99.90;;;;;;5130293;27;20509;-51
2023/07/12 00:23:58;;;;;;;5.50;1.52;;;16.60;99.90;;;;;;5131829;27;20023;-47
2023/07/12 00:26:29;;;;;;;3.78;1.40;;;16.60;99.90;;;;;;5131413;27;20027;-53
2023/07/12 00:28:57;;;;;;;4.82;1.45;;;16.50;99.90;;;;;;5131969;27;20110;-51
2023/07/12 00:31:23;;;;;;;6.15;1.25;;;16.50;99.90;;;;;;5131691;27;20019;-48
2023/07/12 00:33:48;;;;;;;3.50;1.30;;;16.40;99.90;;;;;;5131662;27;20035;-46
2023/07/12 00:36:26;;;;;;;10.73;1.75;;;16.40;99.90;;;;;;5131630;27;20293;-54
2023/07/12 00:38:52;;;;;;;5.50;1.55;;;16.40;99.90;;;;;;5131540;27;20031;-47
2023/07/12 00:41:45;;;;;;;5.22;1.45;;;16.40;99.90;;;;;;5131790;27;20027;-51
2023/07/12 00:44:16;;;;;;;5.35;1.85;;;16.30;99.90;;;;;;5120542;27;20023;-43
2023/07/12 00:46:48;;;;;;;5.07;1.88;;;16.30;99.90;;;;;;5131285;27;20386;-45
2023/07/12 00:49:14;;;;;;;5.03;1.42;;;16.30;99.90;;;;;;5131385;27;20043;-45
2023/07/12 00:51:46;;;;;;;4.00;1.38;;;16.20;99.90;;;;;;5131500;27;20019;-48
2023/07/12 00:54:15;;;;;;;5.28;1.50;;;16.20;99.90;;;;;;5131034;27;20170;-45
2023/07/12 00:56:41;;;;;;;7.32;1.48;;;16.20;99.90;;;;;;5131530;27;20039;-44
2023/07/12 00:59:29;;;;;;;4.47;1.05;;;16.10;99.90;;;;;;5129924;27;20030;-44
2023/07/12 01:02:00;;;;;;;4.78;1.33;;;16.10;99.90;;;;;;5131180;27;20126;-44
2023/07/12 01:04:32;;;;;;;4.50;1.50;;;16.10;99.90;;;;;;5131459;27;20026;-44
2023/07/12 01:06:58;;;;;;;4.85;1.25;;;16.00;99.90;;;;;;5131429;27;20048;-45
2023/07/12 01:09:26;;;;;;;5.90;1.63;;;16.10;99.90;;;;;;5131145;27;20023;-44
2023/07/12 01:11:54;;;;;;;6.03;1.33;;;16.00;99.90;;;;;;5131154;27;20019;-44
2023/07/12 01:14:20;;;;;;;4.57;1.60;;;16.00;99.90;;;;;;5130964;27;20027;-44
2023/07/12 01:16:58;;;;;;;3.60;1.25;;;16.00;99.90;;;;;;5131221;27;20094;-43
2023/07/12 01:19:25;;;;;;;7.80;1.63;;;15.90;99.90;;;;;;5129825;27;20483;-43
2023/07/12 01:21:53;;;;;;;5.00;1.50;;;16.00;99.90;;;;;;5130806;27;20084;-44
2023/07/12 01:24:20;;;;;;;4.03;1.63;;;15.90;99.90;;;;;;5130975;27;20015;-44
2023/07/12 01:26:48;;;;;;;5.90;1.50;;;15.90;99.90;;;;;;5130857;27;20378;-44
2023/07/12 01:29:14;;;;;;;5.60;1.52;;;15.80;99.90;;;;;;5132144;27;20059;-45
2023/07/12 01:31:41;;;;;;;7.05;1.85;;;15.80;99.90;;;;;;5134974;27;20016;-44
2023/07/12 01:34:08;;;;;;;7.40;1.50;;;15.80;99.90;;;;;;5134817;27;20036;-44
2023/07/12 01:36:34;;;;;;;5.80;1.60;;;15.80;99.90;;;;;;5134845;27;20155;-44
2023/07/12 01:39:02;;;;;;;3.15;1.60;;;15.80;99.90;;;;;;5134807;27;20047;-44
2023/07/12 01:41:28;;;;;;;1.98;1.20;;;15.80;99.90;;;;;;5134673;27;20019;-44
2023/07/12 01:43:54;;;;;;;3.88;1.40;;;15.80;99.90;;;;;;5133289;27;20030;-44
2023/07/12 01:46:20;;;;;;;10.00;1.48;;;15.70;99.90;;;;;;5134604;27;20517;-43
2023/07/12 01:48:46;;;;;;;4.25;1.45;;;15.70;99.90;;;;;;5134249;27;20023;-44
2023/07/12 01:51:13;;;;;;;4.22;1.55;;;15.70;99.90;;;;;;5134476;27;20027;-49
2023/07/12 01:53:39;;;;;;;4.97;1.38;;;15.70;99.90;;;;;;5134025;27;20130;-44
2023/07/12 01:56:05;;;;;;;2.30;1.42;;;15.70;99.90;;;;;;5134109;27;20443;-44
2023/07/12 01:58:32;;;;;;;4.38;1.33;;;15.70;99.90;;;;;;5134397;27;20023;-54
2023/07/12 02:00:58;;;;;;;7.25;1.60;;;15.60;99.90;;;;;;5134162;27;20222;-47
2023/07/12 02:03:24;;;;;;;3.90;1.85;;;15.70;99.90;;;;;;5134058;27;20028;-47
2023/07/12 02:05:50;;;;;;;5.35;1.67;;;15.60;99.90;;;;;;5133942;27;20022;-50
2023/07/12 02:08:16;;;;;;;2.65;1.20;;;15.60;99.90;;;;;;5134103;27;20016;-46
2023/07/12 02:10:42;;;;;;;3.72;1.60;;;15.60;99.90;;;;;;5134236;27;20023;-48
2023/07/12 02:13:08;;;;;;;6.50;1.48;;;15.50;99.90;;;;;;5134196;27;20037;-51
2023/07/12 02:15:33;;;;;;;3.88;1.30;;;15.50;99.90;;;;;;5134015;27;20030;-49
2023/07/12 02:18:00;;;;;;;2.10;1.13;;;15.50;99.90;;;;;;5132633;27;20031;-44
2023/07/12 02:20:26;;;;;;;2.88;1.00;;;15.50;99.90;;;;;;5132626;27;20076;-48
2023/07/12 02:22:51;;;;;;;7.43;2.13;;;15.50;99.90;;;;;;5133622;27;20023;-53
2023/07/12 02:25:19;;;;;;;4.03;1.15;;;15.50;99.90;;;;;;5133796;27;20015;-52
2023/07/12 02:27:45;;;;;;;5.53;1.70;;;15.40;99.90;;;;;;5134055;27;20190;-45
2023/07/12 02:30:16;;;;;;;2.22;1.13;;;15.40;99.90;;;;;;5133832;27;20429;-44
2023/07/12 02:32:43;;;;;;;3.60;1.40;;;15.40;99.90;;;;;;5133577;27;20479;-50
2023/07/12 02:35:09;;;;;;;2.90;1.05;;;15.40;99.90;;;;;;5133611;27;20024;-48
2023/07/12 02:37:35;;;;;;;4.55;1.33;;;15.40;99.90;;;;;;5133511;27;20030;-46
2023/07/12 02:40:07;;;;;;;4.07;1.35;;;15.40;99.90;;;;;;5132004;27;20385;-51
2023/07/12 02:42:32;;;;;;;3.53;1.00;;;15.40;99.90;;;;;;5133571;27;20031;-47
2023/07/12 02:44:58;;;;;;;2.33;1.38;;;15.50;99.90;;;;;;5133279;27;20211;-46
2023/07/12 02:47:24;;;;;;;4.97;1.23;;;15.50;99.90;;;;;;5133313;27;20019;-49
2023/07/12 02:49:49;;;;;;;2.38;1.10;;;15.60;99.90;;;;;;5133223;27;20023;-47
2023/07/12 02:52:15;;;;;;;6.70;1.60;;;15.60;99.90;;;;;;5132884;27;20039;-44
2023/07/12 02:54:41;;;;;;;4.15;1.20;;;15.60;99.90;;;;;;5133291;27;20023;-44
2023/07/12 02:57:09;;;;;;;6.28;1.48;;;15.50;99.90;;;;;;5133234;27;20027;-44
2023/07/12 02:59:35;;;;;;;5.95;1.38;;;15.50;99.90;;;;;;5133316;27;20054;-44
2023/07/12 03:02:00;;;;;;;5.57;1.35;;;15.50;99.90;;;;;;5133037;27;20111;-44
2023/07/12 03:04:26;;;;;;;3.78;1.40;;;15.40;99.90;;;;;;5132870;27;20042;-44
2023/07/12 03:06:52;;;;;;;2.33;0.90;;;15.30;99.90;;;;;;5131882;27;20026;-43
2023/07/12 03:09:17;;;;;;;2.75;1.25;;;15.20;99.90;;;;;;5132996;27;20052;-43
2023/07/12 03:11:47;;;;;;;2.50;1.23;;;15.20;99.90;;;;;;5133097;27;20064;-49
2023/07/12 03:14:17;;;;;;;3.60;1.40;;;15.20;99.90;;;;;;5132671;27;20046;-48
2023/07/12 03:16:44;;;;;;;5.47;1.30;;;15.10;99.90;;;;;;5132935;27;20050;-44
2023/07/12 03:19:10;;;;;;;6.68;1.40;;;15.00;99.90;;;;;;5132725;27;20543;-52
2023/07/12 03:21:35;;;;;;;1.67;1.02;;;15.00;99.90;;;;;;5136292;27;20057;-50
2023/07/12 03:24:01;;;;;;;1.42;1.00;;;15.00;99.90;;;;;;5141745;27;20530;-43
2023/07/12 03:26:27;;;;;;;2.90;1.45;;;14.90;99.90;;;;;;5132343;27;20662;-45
2023/07/12 03:28:53;;;;;;;4.53;1.30;;;14.90;99.90;;;;;;5132486;27;20050;-43
2023/07/12 03:31:18;;;;;;;5.10;1.25;;;14.80;99.90;;;;;;5132291;27;20106;-48
2023/07/12 03:33:48;;;;;;;3.67;1.52;;;14.80;99.90;;;;;;5130850;27;20031;-49
2023/07/12 03:36:14;;;;;;;2.15;1.33;;;14.70;99.90;;;;;;5130952;27;20048;-46
2023/07/12 03:38:40;;;;;;;3.78;1.17;;;14.70;99.90;;;;;;5134041;27;20116;-49
2023/07/12 03:41:08;;;;;;;4.70;1.23;;;14.70;99.90;;;;;;5135500;27;20015;-52
2023/07/12 03:43:34;;;;;;;6.22;1.20;;;14.60;99.90;;;;;;5151374;27;20029;-46
2023/07/12 03:46:00;;;;;;;2.63;1.20;;;14.50;99.90;;;;;;5138119;27;20019;-49
2023/07/12 03:48:26;;;;;;;3.45;1.35;;;14.50;99.90;;;;;;5152754;27;20029;-47
2023/07/12 03:50:54;;;;;;;2.97;1.20;;;14.50;99.90;;;;;;5152591;27;20191;-47
2023/07/12 03:53:20;;;;;;;4.85;1.48;;;14.50;99.90;;;;;;5143920;27;20407;-45
2023/07/12 03:55:47;;;;;;;3.53;1.45;;;14.50;99.90;;;;;;5146311;27;20023;-48
2023/07/12 03:58:20;;;;;;;3.03;1.20;;;14.50;99.90;;;;;;5152613;27;20026;-46
2023/07/12 04:00:47;;;;;;;1.33;0.82;;;14.50;99.90;;;;;;5152584;27;20060;-48
2023/07/12 04:03:13;;;;;;;4.50;0.95;;;14.50;99.90;;;;;;5152340;27;20019;-48
2023/07/12 04:05:41;;;;;;;3.25;1.27;;;14.50;99.90;;;;;;5152517;27;20109;-51
2023/07/12 04:08:09;;;;;;;3.38;1.23;;;14.50;99.90;;;;;;5152229;27;20513;-47
2023/07/12 04:10:35;;;;;;;3.28;1.23;;;14.50;99.90;;;;;;5152364;27;20031;-47
2023/07/12 04:13:02;;;;;;;1.77;1.00;;;14.50;99.90;;;;;;5152083;27;20141;-44
2023/07/12 04:15:28;;;;;;;3.45;1.10;;;14.50;99.90;;;;;;5151917;27;20083;-53
2023/07/12 04:17:53;;;;;;;3.65;1.20;;;14.50;99.90;;;;;;5145444;27;20413;-56
2023/07/12 04:20:19;;;;;;;3.00;1.27;;;14.50;99.90;;;;;;5134175;27;20161;-46
2023/07/12 04:22:52;;;;;;;4.35;1.40;;;14.50;99.90;;;;;;5146383;27;20614;-56
2023/07/12 04:25:18;;;;;;;4.78;1.17;;;14.50;99.90;;;;;;5134934;27;20022;-50
2023/07/12 04:27:44;;;;;;;3.13;1.55;;;14.50;99.90;;;;;;5147353;27;20459;-50
2023/07/12 04:30:12;;;;;;;3.30;1.58;;;14.50;99.90;;;;;;5148924;27;20062;-50
2023/07/12 04:32:39;;;;;;;4.38;1.73;;;14.50;99.90;;;;;;5133252;27;20035;-55
2023/07/12 04:35:05;;;;;;;1.67;1.20;;;14.50;99.90;;;;;;5131233;27;20487;-50
2023/07/12 04:37:31;;;;;;;3.90;1.30;;;14.50;99.90;;;;;;5138228;27;20034;-49
2023/07/12 04:39:57;;;;;;;2.83;1.13;;;14.50;99.90;;;;;;5131408;27;20027;-54
2023/07/12 04:42:23;;;;;;;3.95;0.95;;;14.50;99.90;;;;;;5131058;27;20471;-52
2023/07/12 04:44:49;;;;;;;2.30;1.30;;;14.50;99.90;;;;;;5131107;27;20019;-51
2023/07/12 04:47:15;;;;;;;4.57;1.27;;;14.50;99.90;;;;;;5147791;27;20017;-51
2023/07/12 04:49:43;;;;;;;4.18;1.38;;;14.50;99.90;;;;;;5152025;27;20059;-52
2023/07/12 04:52:11;;;;;;;2.25;1.20;;;14.60;99.90;;;;;;5151810;27;20479;-52
2023/07/12 04:54:39;;;;;;;1.98;0.90;;;14.60;99.90;;;;;;5151723;27;20051;-44
2023/07/12 04:57:05;;;;;;;4.85;1.17;;;14.60;99.90;;;;;;5151954;27;20030;-54
2023/07/12 04:59:30;;;;;;;1.85;1.10;;;14.60;99.90;;;;;;5151942;27;20470;-51
2023/07/12 05:01:56;;;;;;;3.70;1.17;;;14.60;99.90;;;;;;5140260;27;20098;-49
2023/07/12 05:04:22;;;;;;;3.05;1.02;;;14.70;99.90;;;;;;5130956;27;20050;-55
2023/07/12 05:06:48;;;;;;;1.85;1.10;;;14.80;99.90;;;;;;5135033;27;20030;-47
2023/07/12 05:09:13;;;;;;;3.85;1.40;;;14.90;99.90;;;;;;5133805;27;20030;-54
2023/07/12 05:11:39;;;;;;;3.70;1.20;;;15.00;99.90;;;;;;5133847;27;20091;-54
2023/07/12 05:14:04;;;;;;;3.13;1.10;;;15.10;99.90;;;;;;5133217;27;20096;-49
2023/07/12 05:16:30;;;;;;;1.98;1.05;;;15.20;99.90;;;;;;5134338;27;20019;-52
2023/07/12 05:18:55;;;;;;;6.03;1.27;;;15.30;99.90;;;;;;5134974;27;20046;-46
2023/07/12 05:21:23;;;;;;;1.65;1.08;;;15.40;99.90;;;;;;5134915;27;20027;-47
2023/07/12 05:23:49;;;;;;;2.72;1.40;;;15.50;99.90;;;;;;5134774;27;20015;-48
2023/07/12 05:26:15;;;;;;;1.40;0.90;;;15.70;99.90;;;;;;5134667;27;20482;-49
2023/07/12 05:28:41;;;;;;;3.63;1.30;;;15.70;99.90;;;;;;5134774;27;20019;-51
2023/07/12 05:31:08;;;;;;;3.05;1.02;;;15.80;99.90;;;;;;5134890;27;20060;-46
2023/07/12 05:33:34;;;;;;;2.15;1.10;;;15.90;99.90;;;;;;5134739;27;20023;-47
2023/07/12 05:36:01;;;;;;;3.50;1.20;;;16.00;99.90;;;;;;5134581;27;20015;-49
2023/07/12 05:38:27;;;;;;;1.42;0.93;;;16.10;99.90;;;;;;5134497;27;20087;-46
2023/07/12 05:40:56;;;;;;;3.22;0.82;;;16.10;99.90;;;;;;5134440;27;20106;-44
2023/07/12 05:43:23;;;;;;;1.98;0.95;;;16.20;99.90;;;;;;5134602;27;20146;-49
2023/07/12 05:45:50;;;;;;;5.32;1.60;;;16.40;99.90;;;;;;5138649;27;20025;-48
2023/07/12 05:48:16;;;;;;;2.63;1.23;;;16.40;99.90;;;;;;5155311;27;20029;-49
2023/07/12 05:50:42;;;;;;;2.83;0.90;;;16.60;99.90;;;;;;5155101;27;20462;-50
2023/07/12 05:53:08;;;;;;;5.32;1.23;;;16.80;99.90;;;;;;5153778;27;20107;-44
2023/07/12 05:55:34;;;;;;;5.03;1.17;;;17.00;99.90;;;;;;5154884;27;20026;-48
2023/07/12 05:58:00;;;;;;;2.95;1.15;;;17.30;99.90;;;;;;5155227;27;20038;-49
2023/07/12 06:00:26;;;;;;;2.42;1.25;;;17.60;99.90;;;;;;5154888;27;20019;-43
2023/07/12 06:02:51;;;;;;;2.83;1.13;;;18.00;99.90;;;;;;5155045;27;20026;-43
2023/07/12 06:05:18;;;;;;;2.97;0.98;;;18.50;99.90;;;;;;5155086;27;20043;-49
2023/07/12 06:07:44;;;;;;;2.92;1.00;;;19.10;99.90;;;;;;5154840;27;20470;-52
2023/07/12 06:10:11;;;;;;;2.83;0.80;;;19.50;99.90;;;;;;5145617;27;20031;-49
2023/07/12 06:12:37;;;;;;;3.05;0.82;;;20.00;99.90;;;;;;5134224;27;20027;-53
2023/07/12 06:15:03;;;;;;;2.50;0.98;;;20.60;99.90;;;;;;5133504;27;20088;-45
2023/07/12 06:17:29;;;;;;;2.60;0.80;;;20.80;99.90;;;;;;5134067;27;20476;-45
2023/07/12 06:19:55;;;;;;;3.85;1.10;;;20.80;99.90;;;;;;5133775;27;20100;-50
2023/07/12 06:22:20;;;;;;;3.40;1.10;;;20.70;99.90;;;;;;5133761;27;20019;-54
2023/07/12 06:24:46;;;;;;;4.85;1.20;;;20.40;99.90;;;;;;5133686;27;20023;-48
2023/07/12 06:27:13;;;;;;;2.83;1.00;;;20.00;99.90;;;;;;5133656;27;20387;-47
2023/07/12 06:29:39;;;;;;;3.97;1.13;;;19.80;99.90;;;;;;5133764;27;20042;-49
2023/07/12 06:32:05;;;;;;;2.30;1.13;;;19.90;99.90;;;;;;5133486;27;20019;-46
2023/07/12 06:34:31;;;;;;;6.72;1.30;;;19.80;99.90;;;;;;5133650;27;20539;-45
2023/07/12 06:36:57;;;;;;;2.33;0.98;;;20.10;99.90;;;;;;5133546;27;20019;-55
2023/07/12 06:39:22;;;;;;;4.55;1.38;;;20.30;99.90;;;;;;5133281;27;20076;-47
2023/07/12 06:41:49;;;;;;;1.45;0.90;;;20.70;99.90;;;;;;5133572;27;20047;-47
2023/07/12 06:44:15;;;;;;;1.67;1.23;;;20.90;99.90;;;;;;5133309;27;20031;-46
2023/07/12 06:46:40;;;;;;;2.83;1.30;;;20.70;99.90;;;;;;5130982;27;20040;-50
2023/07/12 06:49:06;;;;;;;4.35;1.27;;;20.90;99.90;;;;;;5133818;27;20425;-50
2023/07/12 06:51:31;;;;;;;2.28;0.90;;;21.00;99.90;;;;;;5133086;27;20095;-47
2023/07/12 06:53:57;;;;;;;2.25;1.05;;;21.10;99.90;;;;;;5132475;27;20043;-50
2023/07/12 06:56:23;;;;;;;3.95;1.17;;;20.90;99.90;;;;;;5133222;27;20059;-49
2023/07/12 06:58:48;;;;;;;3.63;1.35;;;20.80;99.90;;;;;;5133080;27;20042;-52
2023/07/12 07:01:14;;;;;;;1.10;0.70;;;20.70;99.90;;;;;;5133134;27;20071;-53
2023/07/12 07:03:40;;;;;;;4.53;1.15;;;20.90;99.90;;;;;;5132918;27;20023;-47
2023/07/12 07:06:06;;;;;;;3.65;0.90;;;21.40;99.90;;;;;;5132867;27;20324;-48
2023/07/12 07:08:31;;;;;;;5.18;0.90;;;22.00;99.90;;;;;;5132747;27;20064;-44
2023/07/12 07:10:57;;;;;;;1.10;0.80;;;22.40;99.90;;;;;;5132517;27;20468;-53
2023/07/12 07:13:24;;;;;;;2.67;0.80;;;22.90;99.90;;;;;;5132809;27;20035;-44
2023/07/12 07:15:50;;;;;;;4.07;0.80;;;23.10;99.90;;;;;;5132718;27;20035;-50
2023/07/12 07:18:16;;;;;;;1.33;0.80;;;22.90;99.90;;;;;;5132621;27;20402;-49
2023/07/12 07:20:43;;;;;;;2.53;0.88;;;22.40;99.90;;;;;;5138196;27;20019;-43
2023/07/12 07:23:09;;;;;;;2.90;1.17;;;22.40;99.90;;;;;;5135140;27;20027;-53
2023/07/12 07:25:35;;;;;;;2.42;0.82;;;22.30;99.90;;;;;;5132662;27;20098;-47
2023/07/12 07:28:01;;;;;;;1.40;0.80;;;22.10;99.90;;;;;;5131715;27;20433;-48
2023/07/12 07:30:27;;;;;;;4.30;1.23;;;22.20;99.90;;;;;;5148396;27;20030;-44
2023/07/12 07:32:54;;;;;;;4.68;1.50;;;22.60;99.90;;;;;;5139164;27;20088;-44
2023/07/12 07:35:20;;;;;;;6.32;1.50;;;23.00;99.90;;;;;;5132147;27;20046;-44
2023/07/12 07:37:47;;;;;;;6.38;1.20;;;23.10;99.90;;;;;;5132648;27;20020;-44
2023/07/12 07:40:14;;;;;;;2.33;0.80;;;23.10;99.90;;;;;;5132224;27;20102;-45
2023/07/12 07:42:40;;;;;;;1.85;0.85;;;23.20;99.90;;;;;;5130882;27;20463;-45
2023/07/12 07:45:09;;;;;;;2.10;0.77;;;22.90;99.90;;;;;;5137806;27;20026;-45
2023/07/12 07:47:35;;;;;;;4.80;0.98;;;22.60;99.90;;;;;;5132422;27;20054;-45
2023/07/12 07:50:01;;;;;;;4.32;1.17;;;22.40;99.90;;;;;;5132037;27;20034;-42
2023/07/12 07:52:27;;;;;;;2.67;1.05;;;22.30;99.90;;;;;;5134014;27;20032;-43
2023/07/12 07:54:53;;;;;;;1.58;0.80;;;22.20;99.90;;;;;;5131990;27;20517;-44
2023/07/12 07:57:18;;;;;;;3.67;0.77;;;22.10;99.90;;;;;;5132066;27;20114;-43
2023/07/12 07:59:44;;;;;;;3.20;1.20;;;21.90;99.90;;;;;;5131920;27;20527;-47
2023/07/12 08:02:10;;;;;;;4.57;1.05;;;21.50;99.90;;;;;;5131876;27;20104;-43
2023/07/12 08:04:39;;;;;;;3.00;0.90;;;21.40;99.90;;;;;;5131611;27;20180;-44
2023/07/12 08:07:05;;;;;;;4.72;1.10;;;21.30;99.90;;;;;;5143233;27;20015;-54
2023/07/12 08:09:33;;;;;;;4.78;1.20;;;21.30;99.90;;;;;;5143152;27;20073;-47
2023/07/12 08:11:59;;;;;;;3.30;0.93;;;21.30;99.90;;;;;;5131612;27;20019;-44
2023/07/12 08:14:25;;;;;;;3.55;1.38;;;21.30;99.90;;;;;;5130235;27;20123;-44
2023/07/12 08:16:51;;;;;;;5.63;1.35;;;22.20;99.90;;;;;;5131548;27;20075;-49
2023/07/12 08:19:16;;;;;;;1.58;0.98;;;22.60;99.90;;;;;;5131313;27;20023;-50
2023/07/12 08:21:42;;;;;;;2.65;1.10;;;23.00;99.90;;;;;;5141415;27;20023;-46
2023/07/12 08:24:08;;;;;;;2.10;0.93;;;23.60;99.90;;;;;;5131651;27;20027;-47
2023/07/12 08:26:33;;;;;;;1.88;0.90;;;24.20;99.90;;;;;;5131646;27;20023;-46
2023/07/12 08:28:59;;;;;;;2.53;0.90;;;25.00;99.90;;;;;;5130104;27;20098;-44
2023/07/12 08:31:24;;;;;;;3.55;1.33;;;25.70;99.90;;;;;;5131292;27;20035;-47
2023/07/12 08:33:51;;;;;;;3.75;1.38;;;25.50;99.90;;;;;;5131383;27;20031;-46
2023/07/12 08:36:17;;;;;;;5.72;1.10;;;25.70;99.90;;;;;;5131338;27;20427;-47
2023/07/12 08:38:43;;;;;;;2.88;1.10;;;26.10;99.90;;;;;;5130933;27;20062;-45
2023/07/12 08:41:16;;;;;;;2.45;0.80;;;26.50;99.90;;;;;;5131451;27;20148;-50
2023/07/12 08:43:43;;;;;;;2.08;0.85;;;26.00;99.90;;;;;;5130973;27;20020;-48
2023/07/12 08:46:17;;;;;;;3.22;1.20;;;25.50;99.90;;;;;;5138382;27;20027;-46
2023/07/12 08:48:42;;;;;;;1.55;0.90;;;24.80;99.90;;;;;;5152209;27;20038;-46
2023/07/12 08:51:39;;;;;;;1.08;0.90;;;24.10;99.90;;;;;;5151058;27;20011;-46
2023/07/12 08:54:05;;;;;;;2.90;1.05;;;23.30;99.90;;;;;;5140946;27;20043;-48
2023/07/12 08:56:31;;;;;;;3.10;1.05;;;22.80;99.90;;;;;;5138547;27;20019;-43
2023/07/12 08:58:56;;;;;;;3.22;1.00;;;22.80;99.90;;;;;;5144441;27;20071;-48
2023/07/12 09:01:43;;;;;;;1.83;0.77;;;23.60;99.90;;;;;;5131069;27;20337;-45
2023/07/12 09:04:27;;;;;;;1.30;0.70;;;24.40;99.90;;;;;;5130498;27;20071;-46
2023/07/12 09:06:55;;;;;;;3.55;0.82;;;24.30;99.90;;;;;;5131088;27;20026;-46
2023/07/12 09:09:21;;;;;;;2.35;0.70;;;23.80;99.90;;;;;;5130836;27;20011;-44
2023/07/12 09:11:46;;;;;;;1.27;0.80;;;23.10;99.90;;;;;;5131401;27;20099;-48
2023/07/12 09:14:18;;;;;;;2.20;1.20;;;22.60;99.90;;;;;;5131057;27;20436;-40
2023/07/12 09:16:48;;;;;;;2.35;0.80;;;22.10;99.90;;;;;;5130890;27;20023;-47
2023/07/12 09:19:27;;;;;;;1.83;0.70;;;21.60;99.90;;;;;;5129841;27;20025;-50
2023/07/12 09:22:01;;;;;;;3.22;1.00;;;21.30;99.90;;;;;;5129208;27;20372;-43
2023/07/12 09:24:32;;;;;;;3.80;1.10;;;21.20;99.90;;;;;;5130216;27;20160;-41
2023/07/12 09:27:23;;;;;;;2.95;1.05;;;21.70;99.90;;;;;;5130806;27;20028;-46
2023/07/12 09:29:58;;;;;;;2.22;0.80;;;22.70;99.90;;;;;;5125309;27;20015;-44
2023/07/12 09:32:35;;;;;;;1.98;1.00;;;23.90;99.90;;;;;;5130537;27;20029;-48
2023/07/12 09:35:21;;;;;;;3.17;0.80;;;24.90;99.90;;;;;;5129602;27;20041;-56
2023/07/12 09:37:51;;;;;;;4.90;1.27;;;24.60;99.90;;;;;;5130815;27;20023;-45
2023/07/12 09:40:17;;;;;;;10.48;3.83;;;24.10;99.90;;;;;;5130647;27;20050;-47
2023/07/12 09:42:47;;;;;;;6.70;2.03;;;23.50;99.90;;;;;;5130902;27;20115;-42
2023/07/12 09:45:13;;;;;;;0.82;0.63;;;23.90;99.90;;;;;;5130833;27;20109;-47
2023/07/12 09:47:44;;;;;;;6.15;0.90;;;24.30;99.90;;;;;;5150701;27;20018;-41
2023/07/12 09:50:22;;;;;;;2.97;0.77;;;23.90;99.90;;;;;;5152246;27;20030;-43
2023/07/12 09:53:04;;;;;;;3.50;0.80;;;23.20;99.90;;;;;;5154944;27;20124;-49
2023/07/12 09:55:40;;;;;;;3.67;1.10;;;22.50;99.90;;;;;;5155086;27;20018;-52
2023/07/12 09:58:12;;;;;;;2.05;0.77;;;22.10;99.90;;;;;;5128728;27;20050;-48
2023/07/12 10:00:56;;;;;;;2.50;0.90;;;21.90;99.90;;;;;;5155182;27;20098;-46
2023/07/12 10:03:39;;;;;;;2.70;0.73;;;22.20;99.90;;;;;;5131228;27;20482;-51
2023/07/12 10:06:20;;;;;;;3.85;0.80;;;21.80;99.90;;;;;;5155283;27;20042;-47
2023/07/12 10:08:59;;;;;;;4.38;0.95;;;21.30;99.90;;;;;;5154929;27;20014;-42
2023/07/12 10:11:59;;;;;;;7.32;2.08;;;21.20;99.90;;;;;;5154675;27;20493;-51
2023/07/12 10:14:33;;;;;;;6.80;1.30;;;22.30;99.90;;;;;;5154640;27;20038;-47
2023/07/12 10:16:59;;;;;;;5.07;1.38;;;23.60;99.90;;;;;;5154992;27;20019;-43
2023/07/12 10:19:29;;;;;;;2.05;0.80;;;24.50;99.90;;;;;;5154794;27;20019;-54
2023/07/12 10:21:58;;;;;;;3.92;1.25;;;25.20;99.90;;;;;;5154888;27;20436;-45
2023/07/12 10:24:34;;;;;;;4.47;1.38;;;25.90;99.90;;;;;;5154733;27;20067;-46
2023/07/12 10:27:04;;;;;;;5.50;1.33;;;26.10;99.90;;;;;;5154633;27;20044;-50
2023/07/12 10:29:44;;;;;;;3.70;1.10;;;26.20;99.90;;;;;;5154557;27;20019;-51
2023/07/12 10:32:29;;;;;;;2.75;0.95;;;26.50;99.90;;;;;;5154353;27;20038;-41
2023/07/12 10:35:22;;;;;;;2.53;0.80;;;26.60;99.90;;;;;;5154339;27;20043;-45
2023/07/12 10:37:57;;;;;;;3.05;1.02;;;26.90;99.90;;;;;;5154503;27;20049;-41
2023/07/12 10:40:26;;;;;;;3.90;1.10;;;27.00;99.90;;;;;;5154315;27;20050;-47
2023/07/12 10:42:57;;;;;;;2.40;0.90;;;26.50;99.90;;;;;;5154278;27;20027;-49
2023/07/12 10:45:36;;;;;;;4.50;1.45;;;26.10;99.90;;;;;;5139462;27;20106;-47
2023/07/12 10:48:03;;;;;;;2.50;1.00;;;26.10;99.90;;;;;;5154225;27;20027;-42
2023/07/12 10:50:46;;;;;;;2.97;0.80;;;26.50;99.90;;;;;;5154101;27;20018;-46
2023/07/12 10:53:25;;;;;;;3.58;1.13;;;26.80;99.90;;;;;;5153848;27;20498;-49
2023/07/12 10:56:10;;;;;;;3.53;1.13;;;27.00;99.90;;;;;;5153878;27;20038;-46
2023/07/12 10:59:02;;;;;;;3.65;1.40;;;27.20;99.90;;;;;;5154097;27;20045;-41
2023/07/12 11:01:50;;;;;;;4.35;1.00;;;27.00;99.90;;;;;;5126670;27;20110;-46
2023/07/12 11:04:34;;;;;;;3.38;1.02;;;26.70;99.90;;;;;;5153977;27;20026;-46
2023/07/12 11:07:07;;;;;;;2.53;1.58;;;27.20;99.90;;;;;;5153996;27;20035;-49
2023/07/12 11:09:42;;;;;;;2.50;0.90;;;27.10;99.90;;;;;;5153661;27;20015;-48
2023/07/12 11:12:09;;;;;;;3.80;0.90;;;27.30;99.90;;;;;;5153671;27;20109;-51
2023/07/12 11:14:37;;;;;;;5.25;0.90;;;27.20;99.90;;;;;;5153522;27;20507;-48
2023/07/12 11:17:06;;;;;;;3.55;0.88;;;27.50;99.90;;;;;;5153820;27;20051;-47
2023/07/12 11:19:46;;;;;;;3.72;1.30;;;27.70;99.70;;;;;;5153395;27;20050;-48
2023/07/12 11:22:43;;;;;;;2.50;1.10;;;27.50;99.50;;;;;;5153619;27;20102;-49
2023/07/12 11:25:21;;;;;;;1.88;0.80;;;27.00;98.60;;;;;;5152991;27;20053;-50
2023/07/12 11:27:47;;;;;;;1.38;0.60;;;26.70;99.90;;;;;;5153526;27;20143;-54
2023/07/12 11:30:44;;;;;;;1.80;0.70;;;26.70;99.90;;;;;;5153017;27;20106;-53
2023/07/12 11:33:20;;;;;;;1.40;0.70;;;26.80;98.60;;;;;;5139153;27;20142;-40
2023/07/12 11:35:51;;;;;;;1.67;0.57;;;26.90;99.90;;;;;;5153616;27;20026;-53
2023/07/12 11:38:29;;;;;;;2.63;1.08;;;26.60;99.90;;;;;;5153119;27;20061;-48
2023/07/12 11:40:58;;;;;;;4.53;0.98;;;26.40;99.80;;;;;;5153241;27;20018;-40
2023/07/12 11:43:23;;;;;;;;;;;26.50;99.40;;;;;;5153438;27;20522;-43
2023/07/12 11:45:50;;;;;;;1.98;0.90;;;26.60;98.70;;;;;;5138203;27;19945;-41
2023/07/12 11:48:16;;;;;;;3.40;1.15;;;26.60;98.70;;;;;;5153001;27;20122;-47
2023/07/12 11:50:41;;;;;;;1.50;1.00;;;26.90;99.90;;;;;;5152921;27;20022;-44
2023/07/12 11:53:12;;;;;;;6.40;1.15;;;27.20;99.30;;;;;;5152840;27;20046;-48
2023/07/12 11:55:39;;;;;;;3.17;0.90;;;27.20;98.60;;;;;;5152773;27;20094;-44
2023/07/12 11:58:19;;;;;;;3.28;1.15;;;27.30;98.10;;;;;;5152780;27;20064;-48
2023/07/12 12:00:47;;;;;;;2.03;0.70;;;26.90;97.50;;;;;;5152822;27;20057;-40
2023/07/12 12:03:14;;;;;;;1.73;0.82;;;26.50;99.70;;;;;;5152678;27;20018;-45
2023/07/12 12:05:41;;;;;;;7.40;1.05;;;26.40;99.30;;;;;;5152652;27;20113;-43
2023/07/12 12:08:17;;;;;;;2.97;1.27;;;25.60;99.90;;;;;;5152568;27;20390;-47
2023/07/12 12:10:45;;;;;;;6.60;1.33;;;24.90;99.90;;;;;;5151301;27;20117;-54
2023/07/12 12:13:19;;;;;;;5.10;1.23;;;24.10;99.90;;;;;;5150023;27;20034;-47
2023/07/12 12:16:10;;;;;;;5.70;0.93;;;23.40;99.90;;;;;;5152334;27;20405;-52
2023/07/12 12:18:36;;;;;;;1.73;0.85;;;23.10;99.90;;;;;;5141142;27;20030;-46
2023/07/12 12:21:15;;;;;;;3.20;1.20;;;23.20;99.90;;;;;;5151792;27;20573;-48
2023/07/12 12:23:47;;;;;;;6.10;1.33;;;23.20;99.90;;;;;;5121756;27;20152;-43
2023/07/12 12:26:36;;;;;;;7.18;1.35;;;23.20;99.90;;;;;;5136675;27;20112;-50
2023/07/12 12:29:12;;;;;;;2.92;0.80;;;22.90;99.90;;;;;;5135460;27;20027;-42
2023/07/12 12:31:52;;;;;;;1.63;0.73;;;22.50;99.90;;;;;;5144510;27;20030;-48
2023/07/12 12:34:18;;;;;;;6.53;0.80;;;22.20;99.90;;;;;;5140557;27;20399;-46
2023/07/12 12:37:24;;;;;;;5.20;1.35;;;22.10;99.90;;;;;;5131120;27;20740;-49
2023/07/12 12:40:20;;;;;;;6.88;1.38;;;22.00;99.90;;;;;;5125722;27;20035;-51
2023/07/12 12:43:05;;;;;;;3.28;0.90;;;21.80;99.90;;;;;;5123319;27;20031;-53
2023/07/12 12:45:36;;;;;;;4.15;1.13;;;21.80;99.90;;;;;;5133254;27;20023;-46
2023/07/12 12:48:05;;;;;;;5.38;1.25;;;21.60;99.90;;;;;;5152016;27;20042;-42
2023/07/12 12:50:31;;;;;;;3.65;1.00;;;21.40;99.90;;;;;;5151844;27;20038;-46
2023/07/12 12:53:01;;;;;;;4.30;1.13;;;21.30;99.90;;;;;;5151717;27;20068;-44
2023/07/12 12:55:27;;;;;;;6.28;1.27;;;21.30;99.90;;;;;;5152019;27;20026;-47
2023/07/12 12:57:55;;;;;;;3.88;0.95;;;21.30;99.90;;;;;;5151780;27;20023;-56
2023/07/12 13:00:23;;;;;;;4.88;1.08;;;21.40;99.90;;;;;;5148455;27;20026;-51